Time;durP1;ratioP1;P1;durP2;ratioP2;P2;SDS_P1;SDS_P2;PMS_P1;PMS_P2;Temp;Humidity;BMP_temperature;BMP_pressure;BME280_temperature;BME280_humidity;BME280_pressure;Samples;Min_cycle;Max_cycle;Signal;HPM_P1;HPM_P2
2021/06/20 00:00:42;;;;;;;13.18;8.32;;;23.30;99.90;;;;;;5061046;28;20107;-74
2021/06/20 00:03:08;;;;;;;14.00;8.85;;;23.40;99.90;;;;;;5061499;28;20036;-74
2021/06/20 00:05:38;;;;;;;15.35;8.88;;;23.40;99.90;;;;;;5064857;28;20021;-74
2021/06/20 00:08:05;;;;;;;11.40;8.35;;;23.40;99.90;;;;;;5065498;28;20636;-74
2021/06/20 00:10:30;;;;;;;10.18;8.00;;;23.40;99.90;;;;;;5064578;28;20393;-70
2021/06/20 00:12:58;;;;;;;16.13;13.57;;;23.40;99.90;;;;;;5066721;28;20016;-71
2021/06/20 00:15:25;;;;;;;14.95;10.20;;;23.40;99.90;;;;;;5062269;28;20112;-74
2021/06/20 00:17:50;;;;;;;22.17;10.07;;;23.40;99.90;;;;;;5064465;28;20079;-74
2021/06/20 00:20:17;;;;;;;13.80;8.77;;;23.30;99.90;;;;;;5060975;28;20036;-74
2021/06/20 00:22:45;;;;;;;14.98;9.00;;;23.30;99.90;;;;;;5061158;28;20063;-74
2021/06/20 00:25:12;;;;;;;13.90;8.68;;;23.40;99.90;;;;;;5061248;28;20048;-74
2021/06/20 00:27:37;;;;;;;13.70;8.57;;;23.40;99.90;;;;;;5066224;28;20058;-74
2021/06/20 00:30:08;;;;;;;13.95;8.43;;;23.40;99.90;;;;;;5062207;28;20029;-74
2021/06/20 00:32:36;;;;;;;12.93;8.57;;;23.30;99.90;;;;;;5060707;28;20051;-74
2021/06/20 00:35:04;;;;;;;12.68;8.18;;;23.30;99.90;;;;;;5062522;28;20032;-74
2021/06/20 00:37:29;;;;;;;13.00;8.80;;;23.30;99.90;;;;;;5059081;28;20028;-74
2021/06/20 00:39:55;;;;;;;13.20;8.60;;;23.30;99.90;;;;;;5059637;28;20029;-74
2021/06/20 00:42:23;;;;;;;11.95;8.55;;;23.30;99.90;;;;;;5064618;28;20025;-74
2021/06/20 00:44:51;;;;;;;11.38;8.23;;;23.30;99.90;;;;;;5060371;28;20029;-73
2021/06/20 00:47:18;;;;;;;14.23;8.93;;;23.30;99.90;;;;;;5050508;28;20081;-74
2021/06/20 00:49:44;;;;;;;14.98;8.38;;;23.30;99.90;;;;;;5061161;28;20025;-74
2021/06/20 00:52:12;;;;;;;12.75;9.07;;;23.30;99.90;;;;;;5061510;28;20444;-73
2021/06/20 00:54:47;;;;;;;12.57;8.55;;;23.30;99.90;;;;;;5066477;28;20043;-74
2021/06/20 00:57:17;;;;;;;13.48;8.93;;;23.30;99.90;;;;;;5082393;28;20358;-73
2021/06/20 00:59:45;;;;;;;14.13;8.60;;;23.30;99.90;;;;;;5063434;28;20603;-74
2021/06/20 01:02:12;;;;;;;13.00;8.98;;;23.30;99.90;;;;;;5046510;28;20047;-74
2021/06/20 01:04:41;;;;;;;12.32;8.38;;;23.20;99.90;;;;;;5062469;28;20055;-74
2021/06/20 01:07:06;;;;;;;13.68;8.80;;;23.20;99.90;;;;;;5058611;28;20056;-73
2021/06/20 01:09:34;;;;;;;15.10;8.52;;;23.20;99.90;;;;;;5061060;28;20365;-73
2021/06/20 01:12:02;;;;;;;13.25;8.80;;;23.20;99.90;;;;;;5062573;28;20052;-74
2021/06/20 01:14:28;;;;;;;11.90;8.90;;;23.20;99.90;;;;;;5061691;28;20035;-74
2021/06/20 01:16:54;;;;;;;13.07;8.60;;;23.20;99.90;;;;;;5066095;28;20020;-74
2021/06/20 01:19:22;;;;;;;14.13;8.70;;;23.20;99.90;;;;;;5043143;28;20043;-74
2021/06/20 01:21:50;;;;;;;14.70;9.48;;;23.20;99.90;;;;;;5058643;28;20048;-74
2021/06/20 01:24:15;;;;;;;15.13;8.93;;;23.20;99.90;;;;;;5063167;28;20044;-74
2021/06/20 01:26:46;;;;;;;12.65;9.75;;;23.20;99.90;;;;;;5061989;28;20037;-73
2021/06/20 01:29:13;;;;;;;10.23;8.93;;;23.20;99.90;;;;;;5060431;28;20036;-73
2021/06/20 01:31:47;;;;;;;10.82;8.65;;;23.20;99.90;;;;;;5061658;28;20593;-73
2021/06/20 01:34:13;;;;;;;11.43;8.68;;;23.20;99.90;;;;;;5062808;28;20025;-73
2021/06/20 01:36:41;;;;;;;13.85;9.38;;;23.20;99.90;;;;;;5061573;28;20043;-74
2021/06/20 01:39:07;;;;;;;15.75;8.88;;;23.10;99.90;;;;;;5062695;28;20024;-74
2021/06/20 01:41:35;;;;;;;12.85;9.50;;;23.10;99.90;;;;;;5061578;28;20035;-74
2021/06/20 01:44:06;;;;;;;12.43;8.88;;;23.10;99.90;;;;;;5063040;28;20036;-73
2021/06/20 01:46:34;;;;;;;12.93;9.75;;;23.10;99.90;;;;;;5062898;28;20408;-74
2021/06/20 01:49:00;;;;;;;12.27;9.05;;;23.10;99.90;;;;;;5066049;28;20033;-74
2021/06/20 01:51:25;;;;;;;13.43;9.48;;;23.10;99.90;;;;;;5062248;28;20021;-73
2021/06/20 01:53:51;;;;;;;14.48;9.57;;;23.10;99.90;;;;;;5061817;28;20037;-73
2021/06/20 01:56:21;;;;;;;11.82;9.82;;;23.10;99.90;;;;;;5059712;28;20117;-74
2021/06/20 01:58:47;;;;;;;13.60;9.27;;;23.10;99.90;;;;;;5063116;28;20048;-74
2021/06/20 02:01:16;;;;;;;13.80;8.95;;;23.10;99.90;;;;;;5060376;28;20029;-74
2021/06/20 02:03:42;;;;;;;13.07;8.80;;;23.10;99.90;;;;;;5060486;28;20036;-74
2021/06/20 02:06:08;;;;;;;14.55;9.55;;;23.10;99.90;;;;;;5060487;28;20024;-73
2021/06/20 02:08:33;;;;;;;16.90;9.52;;;23.10;99.90;;;;;;5064981;28;20032;-73
2021/06/20 02:10:59;;;;;;;15.15;8.90;;;23.10;99.90;;;;;;5060191;28;20029;-74
2021/06/20 02:13:28;;;;;;;13.80;9.10;;;23.20;99.90;;;;;;5059628;28;20348;-74
2021/06/20 02:15:54;;;;;;;16.75;9.23;;;23.20;99.90;;;;;;5059686;28;20083;-74
2021/06/20 02:18:20;;;;;;;14.77;8.77;;;23.30;99.90;;;;;;5064868;28;20518;-73
2021/06/20 02:20:48;;;;;;;14.80;8.30;;;23.30;99.90;;;;;;5046434;28;20070;-75
2021/06/20 02:23:14;;;;;;;13.32;8.60;;;23.30;99.90;;;;;;5059608;28;20120;-74
2021/06/20 02:25:41;;;;;;;12.95;8.30;;;23.40;99.90;;;;;;5061464;28;20119;-74
2021/06/20 02:28:07;;;;;;;14.07;8.57;;;23.50;99.90;;;;;;5056927;28;20017;-74
2021/06/20 02:30:33;;;;;;;16.35;7.93;;;23.50;99.90;;;;;;5062060;28;20021;-74
2021/06/20 02:32:58;;;;;;;16.83;9.02;;;23.50;99.90;;;;;;5059349;28;20083;-73
2021/06/20 02:35:24;;;;;;;12.10;8.48;;;23.60;99.90;;;;;;5061297;28;20044;-74
2021/06/20 02:37:50;;;;;;;12.38;7.88;;;23.60;99.90;;;;;;5059601;28;20026;-74
2021/06/20 02:40:19;;;;;;;17.00;8.80;;;23.60;99.90;;;;;;5081722;28;20696;-74
2021/06/20 02:42:45;;;;;;;15.73;7.93;;;23.60;99.90;;;;;;5059977;28;20029;-73
2021/06/20 02:45:14;;;;;;;13.57;7.80;;;23.60;99.90;;;;;;5049660;28;20077;-73
2021/06/20 02:47:40;;;;;;;14.50;7.82;;;23.60;99.90;;;;;;5046792;28;20036;-73
2021/06/20 02:50:10;;;;;;;13.32;7.68;;;23.50;99.90;;;;;;5077674;28;20185;-73
2021/06/20 02:52:38;;;;;;;12.60;6.30;;;23.50;99.90;;;;;;5059285;28;20021;-73
2021/06/20 02:55:04;;;;;;;13.50;5.95;;;23.50;99.90;;;;;;5057162;28;20151;-74
2021/06/20 02:57:30;;;;;;;11.40;6.32;;;23.50;99.90;;;;;;5059386;28;20618;-74
2021/06/20 03:00:01;;;;;;;13.18;6.22;;;23.50;99.90;;;;;;5058551;28;20110;-74
2021/06/20 03:02:29;;;;;;;14.80;6.00;;;23.50;99.90;;;;;;5059346;28;20090;-74
2021/06/20 03:04:57;;;;;;;13.35;6.20;;;23.50;99.90;;;;;;5060922;28;20273;-73
2021/06/20 03:07:23;;;;;;;14.30;5.95;;;23.40;99.90;;;;;;5062637;28;20024;-73
2021/06/20 03:09:49;;;;;;;9.80;5.60;;;23.40;99.90;;;;;;5059863;28;20037;-74
2021/06/20 03:12:17;;;;;;;12.05;5.43;;;23.50;99.90;;;;;;5059095;28;20067;-74
2021/06/20 03:14:46;;;;;;;14.15;6.10;;;23.50;99.90;;;;;;5048712;28;20442;-74
2021/06/20 03:17:14;;;;;;;11.07;5.40;;;23.40;99.90;;;;;;5060521;28;21970;-74
2021/06/20 03:19:43;;;;;;;14.30;6.30;;;23.40;99.90;;;;;;5057429;28;20068;-74
2021/06/20 03:22:11;;;;;;;13.18;5.70;;;23.40;99.90;;;;;;5060698;28;20064;-73
2021/06/20 03:24:41;;;;;;;16.63;6.20;;;23.30;99.90;;;;;;5063351;28;20431;-73
2021/06/20 03:27:07;;;;;;;12.60;5.88;;;23.30;99.90;;;;;;5063722;28;20052;-74
2021/06/20 03:29:32;;;;;;;11.88;5.90;;;23.30;99.90;;;;;;5064039;28;20056;-75
2021/06/20 03:32:03;;;;;;;17.40;6.18;;;23.30;99.90;;;;;;5064712;28;20025;-73
2021/06/20 03:34:31;;;;;;;11.82;5.30;;;23.30;99.90;;;;;;5061071;28;20025;-73
2021/06/20 03:36:56;;;;;;;13.55;5.30;;;23.20;99.90;;;;;;5062032;28;20430;-78
2021/06/20 03:39:24;;;;;;;13.80;5.07;;;23.20;99.90;;;;;;5062812;28;20051;-73
2021/06/20 03:41:50;;;;;;;14.45;5.50;;;23.20;99.90;;;;;;5061106;28;20477;-74
2021/06/20 03:44:17;;;;;;;12.43;5.20;;;23.20;99.90;;;;;;5066126;28;20036;-75
2021/06/20 03:46:43;;;;;;;11.18;5.28;;;23.20;99.90;;;;;;5063045;28;20035;-74
2021/06/20 03:49:09;;;;;;;11.18;5.07;;;23.10;99.90;;;;;;5063801;28;20529;-73
2021/06/20 03:51:37;;;;;;;15.07;5.72;;;23.10;99.90;;;;;;5060840;28;20021;-74
2021/06/20 03:54:05;;;;;;;13.38;5.45;;;23.10;99.90;;;;;;5063373;28;20024;-74
2021/06/20 03:56:30;;;;;;;13.13;5.45;;;23.10;99.90;;;;;;5063643;28;20040;-74
2021/06/20 03:58:56;;;;;;;13.43;5.65;;;23.10;99.90;;;;;;5064825;28;20063;-74
2021/06/20 04:01:24;;;;;;;12.35;5.20;;;23.00;99.90;;;;;;5064600;28;20045;-78
2021/06/20 04:03:50;;;;;;;11.68;5.50;;;23.00;99.90;;;;;;5062457;28;20028;-74
2021/06/20 04:06:15;;;;;;;13.30;5.32;;;23.00;99.90;;;;;;5063708;28;20430;-76
2021/06/20 04:08:41;;;;;;;9.68;5.15;;;23.00;99.90;;;;;;5064536;28;20035;-74
2021/06/20 04:11:07;;;;;;;11.38;5.38;;;23.00;99.90;;;;;;5060974;28;20032;-74
2021/06/20 04:13:32;;;;;;;10.27;5.15;;;23.00;99.90;;;;;;5048460;28;20465;-74
2021/06/20 04:16:00;;;;;;;12.98;5.38;;;23.00;99.90;;;;;;5062424;28;20074;-74
2021/06/20 04:18:26;;;;;;;11.73;5.20;;;23.00;99.90;;;;;;5064874;28;20024;-74
2021/06/20 04:20:52;;;;;;;10.77;5.07;;;23.10;99.90;;;;;;5062324;28;20052;-75
2021/06/20 04:23:20;;;;;;;12.77;5.32;;;23.10;99.90;;;;;;5061619;28;20099;-73
2021/06/20 04:25:48;;;;;;;10.52;5.00;;;23.00;99.90;;;;;;5062510;28;20527;-74
2021/06/20 04:28:16;;;;;;;14.20;5.47;;;23.10;99.90;;;;;;5062269;28;20479;-74
2021/06/20 04:30:41;;;;;;;11.75;4.80;;;23.00;99.90;;;;;;5064466;28;20031;-74
2021/06/20 04:33:07;;;;;;;11.98;5.28;;;23.00;99.90;;;;;;5062410;28;20028;-76
2021/06/20 04:35:33;;;;;;;14.73;5.55;;;22.90;99.90;;;;;;5063229;28;20025;-76
2021/06/20 04:37:58;;;;;;;10.65;4.70;;;22.90;99.90;;;;;;5059234;28;20040;-73
2021/06/20 04:40:25;;;;;;;13.10;5.70;;;22.90;99.90;;;;;;5062081;28;20021;-76
2021/06/20 04:43:06;;;;;;;12.18;4.72;;;22.80;99.90;;;;;;5061718;28;20103;-74
2021/06/20 04:45:32;;;;;;;11.95;4.40;;;22.80;99.90;;;;;;5060882;28;20024;-74
2021/06/20 04:47:57;;;;;;;11.90;5.10;;;22.90;99.90;;;;;;5061471;28;20035;-73
2021/06/20 04:50:26;;;;;;;10.73;4.78;;;22.80;99.90;;;;;;5060918;28;20449;-75
2021/06/20 04:52:56;;;;;;;9.32;4.65;;;22.80;99.90;;;;;;5060319;28;20473;-75
2021/06/20 04:55:26;;;;;;;12.10;4.65;;;22.70;99.90;;;;;;5059952;28;20040;-75
2021/06/20 04:57:52;;;;;;;10.10;4.50;;;22.70;99.90;;;;;;5063752;28;20476;-73
2021/06/20 05:00:18;;;;;;;10.82;4.60;;;22.70;99.90;;;;;;5061990;28;20028;-73
2021/06/20 05:02:43;;;;;;;10.93;4.55;;;22.70;99.90;;;;;;5063964;28;21922;-73
2021/06/20 05:05:10;;;;;;;10.60;4.50;;;22.80;99.90;;;;;;5060520;28;20041;-73
2021/06/20 05:07:37;;;;;;;8.90;4.50;;;22.70;99.90;;;;;;5060348;28;20086;-73
2021/06/20 05:10:03;;;;;;;10.95;4.55;;;22.70;99.90;;;;;;5062870;28;20119;-74
2021/06/20 05:12:34;;;;;;;9.93;4.60;;;22.60;99.90;;;;;;5064624;28;20697;-75
2021/06/20 05:14:59;;;;;;;12.02;4.72;;;22.60;99.90;;;;;;5063312;28;20100;-73
2021/06/20 05:17:25;;;;;;;8.50;4.55;;;22.50;99.90;;;;;;5060723;28;20100;-75
2021/06/20 05:19:51;;;;;;;9.38;4.53;;;22.50;99.90;;;;;;5063441;28;20033;-75
2021/06/20 05:22:19;;;;;;;11.38;4.80;;;22.50;99.90;;;;;;5060870;28;20043;-74
2021/06/20 05:24:48;;;;;;;12.20;4.60;;;22.40;99.90;;;;;;5062540;28;20093;-75
2021/06/20 05:27:13;;;;;;;11.73;5.10;;;22.30;99.90;;;;;;5061364;28;20024;-74
2021/06/20 05:29:42;;;;;;;10.45;4.55;;;22.20;99.90;;;;;;5066782;28;20036;-76
2021/06/20 05:32:07;;;;;;;10.73;4.70;;;22.20;99.90;;;;;;5047932;28;20478;-74
2021/06/20 05:34:33;;;;;;;10.55;4.15;;;22.20;99.90;;;;;;5064423;28;20043;-74
2021/06/20 05:37:04;;;;;;;7.72;4.28;;;22.20;99.90;;;;;;5058789;28;20025;-75
2021/06/20 05:39:29;;;;;;;7.80;4.25;;;22.30;99.90;;;;;;5049404;28;20122;-73
2021/06/20 05:41:55;;;;;;;9.52;4.20;;;22.30;99.90;;;;;;5063276;28;20481;-74
2021/06/20 05:44:21;;;;;;;10.70;4.43;;;22.30;99.90;;;;;;5064510;28;20040;-74
2021/06/20 05:46:46;;;;;;;9.52;4.38;;;22.30;99.90;;;;;;5062609;28;20113;-74
2021/06/20 05:49:12;;;;;;;9.02;4.60;;;22.30;99.90;;;;;;5050534;28;20032;-74
2021/06/20 05:51:37;;;;;;;9.52;4.30;;;22.30;99.90;;;;;;5062513;28;20025;-74
2021/06/20 05:54:03;;;;;;;8.77;4.55;;;22.40;99.90;;;;;;5064979;28;20056;-74
2021/06/20 05:56:29;;;;;;;9.52;4.55;;;22.40;99.90;;;;;;5062193;28;20032;-75
2021/06/20 05:58:55;;;;;;;11.45;4.60;;;22.30;99.90;;;;;;5062308;28;20032;-77
2021/06/20 06:01:20;;;;;;;10.88;4.82;;;22.40;99.90;;;;;;5060076;28;20035;-76
2021/06/20 06:03:46;;;;;;;9.07;4.57;;;22.40;99.90;;;;;;5061620;28;20540;-76
2021/06/20 06:06:12;;;;;;;10.43;4.78;;;22.40;99.90;;;;;;5062626;28;20021;-77
2021/06/20 06:08:37;;;;;;;11.07;4.03;;;22.40;99.90;;;;;;5060966;28;20043;-75
2021/06/20 06:11:03;;;;;;;11.27;4.75;;;22.40;99.90;;;;;;5059649;28;20056;-74
2021/06/20 06:13:28;;;;;;;9.18;4.22;;;22.50;99.90;;;;;;5063233;28;20037;-73
2021/06/20 06:15:54;;;;;;;8.43;4.28;;;22.50;99.90;;;;;;5061218;28;20056;-74
2021/06/20 06:18:20;;;;;;;9.07;4.60;;;22.60;99.90;;;;;;5062007;28;20442;-73
2021/06/20 06:20:45;;;;;;;10.63;3.95;;;22.50;99.90;;;;;;5059662;28;20045;-74
2021/06/20 06:23:13;;;;;;;17.95;4.90;;;22.50;99.90;;;;;;5066517;28;20029;-74
2021/06/20 06:25:41;;;;;;;10.13;4.22;;;22.60;99.90;;;;;;5058041;28;20025;-76
2021/06/20 06:28:07;;;;;;;8.15;4.10;;;22.60;99.90;;;;;;5061787;28;20513;-74
2021/06/20 06:30:35;;;;;;;8.55;3.75;;;22.60;99.90;;;;;;5061370;28;20024;-73
2021/06/20 06:33:06;;;;;;;7.68;3.70;;;22.60;99.90;;;;;;5057299;28;20024;-74
2021/06/20 06:35:34;;;;;;;7.60;3.83;;;22.50;99.90;;;;;;5061826;28;20036;-75
2021/06/20 06:38:02;;;;;;;8.32;4.13;;;22.60;99.90;;;;;;5059762;28;20124;-76
2021/06/20 06:40:29;;;;;;;7.72;4.00;;;22.60;99.90;;;;;;5061173;28;20029;-77
2021/06/20 06:42:55;;;;;;;8.27;3.88;;;22.60;99.90;;;;;;5062669;28;20033;-74
2021/06/20 06:45:21;;;;;;;10.30;3.72;;;22.60;99.90;;;;;;5045984;28;20112;-74
2021/06/20 06:47:47;;;;;;;8.75;3.95;;;22.60;99.90;;;;;;5060378;28;20163;-74
2021/06/20 06:50:12;;;;;;;8.48;3.83;;;22.60;99.90;;;;;;5060940;28;20044;-76
2021/06/20 06:52:40;;;;;;;7.18;3.67;;;22.50;99.90;;;;;;5062328;28;20373;-74
2021/06/20 06:55:09;;;;;;;8.18;3.63;;;22.50;99.20;;;;;;5063089;28;20493;-76
2021/06/20 06:57:37;;;;;;;7.80;3.70;;;22.50;99.90;;;;;;5060853;28;20416;-74
2021/06/20 07:00:07;;;;;;;9.18;3.80;;;22.60;99.90;;;;;;5043021;28;20028;-77
2021/06/20 07:02:33;;;;;;;9.55;3.80;;;22.60;99.90;;;;;;5066873;28;20025;-73
2021/06/20 07:04:59;;;;;;;7.50;4.00;;;22.50;99.90;;;;;;5084276;28;20040;-75
2021/06/20 07:07:26;;;;;;;9.77;4.10;;;22.60;99.90;;;;;;5066814;28;20067;-73
2021/06/20 07:09:51;;;;;;;8.55;4.30;;;22.60;99.90;;;;;;5066346;28;20033;-74
2021/06/20 07:12:17;;;;;;;7.05;3.70;;;22.60;99.90;;;;;;5043485;28;20112;-72
2021/06/20 07:14:43;;;;;;;6.60;3.75;;;22.70;99.90;;;;;;5049996;28;20021;-73
2021/06/20 07:17:09;;;;;;;8.45;4.10;;;22.70;99.90;;;;;;5064240;28;20110;-73
2021/06/20 07:19:35;;;;;;;8.95;3.90;;;22.70;99.90;;;;;;5064748;28;20033;-73
2021/06/20 07:22:02;;;;;;;6.80;3.90;;;22.70;99.90;;;;;;5064060;28;20025;-73
2021/06/20 07:24:28;;;;;;;7.80;4.07;;;22.70;99.90;;;;;;5052834;28;20044;-73
2021/06/20 07:26:56;;;;;;;8.40;4.10;;;22.70;99.90;;;;;;5070045;28;20050;-75
2021/06/20 07:29:24;;;;;;;9.65;4.10;;;22.70;99.90;;;;;;5062507;28;20075;-73
2021/06/20 07:31:52;;;;;;;8.40;3.92;;;22.80;99.90;;;;;;5068526;28;20442;-78
2021/06/20 07:34:17;;;;;;;8.98;4.30;;;22.90;99.90;;;;;;5068968;28;20033;-73
2021/06/20 07:36:43;;;;;;;6.68;4.15;;;22.90;99.90;;;;;;5059387;28;20515;-73
2021/06/20 07:39:11;;;;;;;8.40;4.20;;;22.90;99.90;;;;;;5060057;28;20032;-74
2021/06/20 07:41:37;;;;;;;10.75;4.40;;;23.00;99.90;;;;;;5065119;28;20042;-73
2021/06/20 07:44:02;;;;;;;9.55;4.18;;;23.10;99.90;;;;;;5065013;28;20088;-75
2021/06/20 07:46:28;;;;;;;11.38;4.78;;;23.20;99.90;;;;;;5060195;28;20120;-73
2021/06/20 07:48:54;;;;;;;8.25;4.10;;;23.30;99.90;;;;;;5062814;28;20127;-76
2021/06/20 07:51:22;;;;;;;11.15;4.93;;;23.40;99.90;;;;;;5066078;28;20024;-73
2021/06/20 07:53:48;;;;;;;10.52;4.93;;;23.40;99.90;;;;;;5064509;28;20108;-73
2021/06/20 07:56:16;;;;;;;8.65;4.25;;;23.40;99.90;;;;;;5061616;28;20108;-73
2021/06/20 07:58:41;;;;;;;7.90;4.13;;;23.50;99.90;;;;;;5064234;28;20024;-74
2021/06/20 08:01:07;;;;;;;10.98;4.40;;;23.50;99.90;;;;;;5064066;28;20124;-75
2021/06/20 08:03:34;;;;;;;7.40;3.80;;;23.60;99.90;;;;;;5061698;28;20397;-75
2021/06/20 08:05:59;;;;;;;5.78;3.88;;;23.50;95.80;;;;;;5064203;28;20539;-75
2021/06/20 08:08:25;;;;;;;7.45;4.15;;;23.60;99.90;;;;;;5066159;28;20111;-75
2021/06/20 08:10:51;;;;;;;7.65;3.90;;;23.60;95.00;;;;;;5062912;28;20638;-76
2021/06/20 08:13:16;;;;;;;8.00;3.78;;;23.70;99.00;;;;;;5065418;28;20039;-75
2021/06/20 08:15:43;;;;;;;6.25;3.33;;;23.70;95.10;;;;;;5061968;28;20025;-75
2021/06/20 08:18:10;;;;;;;7.40;3.55;;;23.80;93.90;;;;;;5068372;28;20036;-76
2021/06/20 08:20:38;;;;;;;10.00;3.80;;;23.90;94.80;;;;;;5066098;28;20032;-71
2021/06/20 08:23:04;;;;;;;6.97;4.47;;;23.90;97.40;;;;;;5063433;28;20036;-70
2021/06/20 08:25:32;;;;;;;9.00;4.30;;;23.90;96.50;;;;;;5059828;28;20920;-70
2021/06/20 08:27:57;;;;;;;7.43;3.53;;;24.00;96.80;;;;;;5064617;28;20037;-76
2021/06/20 08:30:23;;;;;;;6.50;3.55;;;24.00;92.00;;;;;;5062676;28;20098;-74
2021/06/20 08:32:49;;;;;;;7.93;3.97;;;24.00;93.30;;;;;;5059932;28;20102;-75
2021/06/20 08:35:17;;;;;;;8.10;3.95;;;23.90;92.90;;;;;;5062870;28;20047;-74
2021/06/20 08:37:44;;;;;;;7.55;4.00;;;24.00;94.50;;;;;;5061883;28;20030;-71
2021/06/20 08:40:10;;;;;;;10.23;6.57;;;24.10;97.40;;;;;;5062733;28;20071;-70
2021/06/20 08:42:38;;;;;;;6.20;4.10;;;24.30;96.10;;;;;;5059759;28;20423;-72
2021/06/20 08:45:07;;;;;;;8.80;3.97;;;24.40;95.10;;;;;;5062357;28;20064;-70
2021/06/20 08:47:35;;;;;;;7.18;4.03;;;24.50;95.70;;;;;;5060367;28;20120;-70
2021/06/20 08:50:06;;;;;;;10.43;3.92;;;24.60;94.50;;;;;;5061829;28;20047;-72
2021/06/20 08:52:37;;;;;;;8.95;4.10;;;24.60;95.10;;;;;;5059306;28;20029;-76
2021/06/20 08:55:05;;;;;;;8.77;4.05;;;24.80;95.10;;;;;;5060790;28;20028;-76
2021/06/20 08:57:35;;;;;;;7.63;4.13;;;24.70;95.10;;;;;;5061205;28;20366;-74
2021/06/20 09:00:02;;;;;;;8.68;4.30;;;24.80;99.90;;;;;;5063982;28;20350;-77
2021/06/20 09:02:28;;;;;;;6.07;3.92;;;24.60;94.80;;;;;;5048838;28;20028;-75
2021/06/20 09:05:07;;;;;;;8.45;4.30;;;24.80;97.60;;;;;;5059526;28;20090;-76
2021/06/20 09:07:34;;;;;;;6.65;4.00;;;24.80;93.80;;;;;;5065061;28;20909;-74
2021/06/20 09:10:22;;;;;;;8.88;3.67;;;24.80;97.90;;;;;;5063434;28;20434;-75
2021/06/20 09:12:55;;;;;;;8.10;3.80;;;24.90;94.40;;;;;;5062983;28;20480;-76
2021/06/20 09:15:25;;;;;;;10.20;3.80;;;24.90;90.50;;;;;;5056776;28;20025;-77
2021/06/20 09:18:07;;;;;;;11.85;4.00;;;24.70;90.10;;;;;;5059941;28;20016;-74
2021/06/20 09:20:43;;;;;;;7.57;3.88;;;24.80;96.80;;;;;;5056866;28;20353;-73
2021/06/20 09:23:15;;;;;;;8.05;3.95;;;24.90;93.90;;;;;;5079674;28;20037;-70
2021/06/20 09:25:42;;;;;;;8.98;4.00;;;24.80;91.30;;;;;;5061539;28;20049;-73
2021/06/20 09:28:09;;;;;;;6.97;3.97;;;24.80;96.20;;;;;;5060357;28;20110;-77
2021/06/20 09:30:35;;;;;;;6.32;4.15;;;24.60;91.10;;;;;;5062852;28;20477;-76
2021/06/20 09:33:05;;;;;;;9.10;3.72;;;24.60;92.40;;;;;;5060591;28;20021;-78
2021/06/20 09:35:48;;;;;;;7.43;3.50;;;24.60;91.20;;;;;;5060783;28;20031;-75
2021/06/20 09:38:22;;;;;;;6.30;3.47;;;24.60;92.40;;;;;;5058387;28;20021;-74
2021/06/20 09:40:50;;;;;;;6.97;3.53;;;24.80;92.50;;;;;;5060801;28;20540;-77
2021/06/20 09:43:17;;;;;;;8.07;3.67;;;24.80;95.80;;;;;;5057333;28;20085;-77
2021/06/20 09:45:46;;;;;;;10.18;3.90;;;24.80;88.50;;;;;;5060177;28;20030;-74
2021/06/20 09:48:24;;;;;;;16.30;12.00;;;24.90;94.40;;;;;;5061032;28;20710;-70
2021/06/20 09:50:50;;;;;;;7.25;3.92;;;25.00;91.40;;;;;;5060800;28;20028;-70
2021/06/20 09:53:30;;;;;;;11.82;3.90;;;24.90;93.10;;;;;;5060033;28;20571;-70
2021/06/20 09:56:20;;;;;;;6.55;3.33;;;25.00;92.50;;;;;;5057949;28;20024;-71
2021/06/20 09:58:50;;;;;;;6.53;3.42;;;25.00;90.50;;;;;;5063580;28;20082;-74
2021/06/20 10:01:16;;;;;;;6.53;3.55;;;25.00;90.40;;;;;;5057628;28;20056;-84
2021/06/20 10:03:46;;;;;;;7.35;3.50;;;25.00;91.80;;;;;;5062744;28;20036;-75
2021/06/20 10:06:14;;;;;;;6.25;3.50;;;25.00;84.90;;;;;;5060335;28;20032;-74
2021/06/20 10:08:43;;;;;;;6.43;3.50;;;24.90;88.80;;;;;;5061228;28;20397;-74
2021/06/20 10:11:11;;;;;;;7.80;3.65;;;25.00;91.10;;;;;;5045304;28;20025;-76
2021/06/20 10:13:39;;;;;;;6.00;3.45;;;24.90;87.70;;;;;;5061648;28;20024;-75
2021/06/20 10:16:21;;;;;;;7.40;3.70;;;24.80;91.10;;;;;;5059074;28;20016;-76
2021/06/20 10:19:14;;;;;;;6.78;3.33;;;24.80;91.00;;;;;;5062995;28;20518;-77
2021/06/20 10:21:44;;;;;;;7.30;3.70;;;24.70;88.40;;;;;;5062128;28;20044;-75
2021/06/20 10:24:17;;;;;;;8.48;4.13;;;24.70;89.20;;;;;;5060418;28;20041;-75
2021/06/20 10:26:55;;;;;;;7.57;3.65;;;24.70;90.60;;;;;;5058665;28;20104;-74
2021/06/20 10:29:23;;;;;;;7.10;3.80;;;24.70;91.20;;;;;;5060008;28;20032;-75
2021/06/20 10:31:49;;;;;;;6.70;4.10;;;24.70;95.00;;;;;;5059571;28;20025;-75
2021/06/20 10:34:19;;;;;;;6.47;3.58;;;24.70;90.50;;;;;;5041908;28;20362;-75
2021/06/20 10:36:55;;;;;;;6.70;3.83;;;24.60;92.10;;;;;;5062344;28;20055;-74
2021/06/20 10:39:23;;;;;;;8.45;4.00;;;24.60;90.80;;;;;;5066355;28;20181;-74
2021/06/20 10:41:49;;;;;;;7.60;3.92;;;24.60;91.20;;;;;;5063854;28;20501;-75
2021/06/20 10:44:15;;;;;;;8.10;3.92;;;24.50;88.00;;;;;;5060018;28;20028;-75
2021/06/20 10:46:53;;;;;;;9.60;4.10;;;24.60;91.00;;;;;;5060081;28;20545;-74
2021/06/20 10:49:21;;;;;;;8.30;4.07;;;24.70;94.40;;;;;;5041877;28;20052;-75
2021/06/20 10:51:46;;;;;;;7.97;4.00;;;24.60;88.40;;;;;;5063972;28;20053;-74
2021/06/20 10:54:28;;;;;;;6.90;3.60;;;24.70;90.70;;;;;;5060572;28;20055;-70
2021/06/20 10:56:58;;;;;;;6.68;4.60;;;24.80;93.50;;;;;;5065792;28;20025;-72
2021/06/20 10:59:26;;;;;;;5.90;3.92;;;25.00;91.50;;;;;;5064928;28;20036;-75
2021/06/20 11:01:53;;;;;;;8.40;4.10;;;25.10;91.90;;;;;;5060116;28;20051;-75
2021/06/20 11:04:22;;;;;;;7.35;4.40;;;25.10;89.10;;;;;;5061876;28;20048;-75
2021/06/20 11:06:53;;;;;;;7.30;3.78;;;25.10;93.00;;;;;;5061766;28;20033;-75
2021/06/20 11:09:24;;;;;;;8.68;4.28;;;25.20;90.30;;;;;;5063364;28;20028;-74
2021/06/20 11:11:58;;;;;;;8.02;4.03;;;25.10;85.30;;;;;;5065693;28;20024;-75
2021/06/20 11:14:26;;;;;;;10.10;4.63;;;25.20;90.70;;;;;;5063797;28;20641;-76
2021/06/20 11:16:54;;;;;;;8.57;4.25;;;25.10;86.80;;;;;;5061675;28;20628;-74
2021/06/20 11:19:26;;;;;;;9.43;4.72;;;25.20;88.10;;;;;;5066043;28;20127;-75
2021/06/20 11:21:55;;;;;;;6.75;4.10;;;25.20;84.10;;;;;;5067061;28;20040;-78
2021/06/20 11:24:27;;;;;;;8.40;4.15;;;25.10;82.30;;;;;;5061191;28;20114;-75
2021/06/20 11:27:10;;;;;;;10.45;5.05;;;25.20;89.70;;;;;;5062071;28;20689;-74
2021/06/20 11:29:52;;;;;;;7.13;4.40;;;25.20;84.90;;;;;;5061411;28;20139;-74
2021/06/20 11:32:22;;;;;;;8.27;4.20;;;25.40;91.70;;;;;;5059400;28;20021;-75
2021/06/20 11:34:57;;;;;;;7.70;4.25;;;25.50;85.90;;;;;;5066730;28;20032;-75
2021/06/20 11:37:27;;;;;;;9.15;4.50;;;25.60;85.70;;;;;;5062402;28;20039;-74
2021/06/20 11:40:01;;;;;;;9.98;4.93;;;25.60;84.50;;;;;;5067584;28;20024;-75
2021/06/20 11:42:37;;;;;;;9.05;4.50;;;25.80;90.10;;;;;;5060169;28;20035;-77
2021/06/20 11:45:04;;;;;;;10.15;4.70;;;25.90;83.90;;;;;;5049126;28;20024;-76
2021/06/20 11:47:34;;;;;;;7.53;4.47;;;25.90;78.80;;;;;;5059965;28;20513;-74
2021/06/20 11:50:20;;;;;;;8.18;4.60;;;25.90;84.60;;;;;;5047365;28;20044;-75
2021/06/20 11:52:47;;;;;;;7.35;5.00;;;26.10;79.40;;;;;;5064416;28;20048;-75
2021/06/20 11:55:23;;;;;;;6.95;4.20;;;26.30;93.50;;;;;;5066924;28;20037;-76
2021/06/20 11:57:51;;;;;;;8.80;4.72;;;26.30;77.50;;;;;;5062573;28;20056;-77
2021/06/20 12:00:18;;;;;;;6.13;4.40;;;26.40;84.60;;;;;;5080698;28;20124;-76
2021/06/20 12:02:45;;;;;;;6.50;4.30;;;26.50;80.20;;;;;;5063186;28;20541;-75
2021/06/20 12:05:14;;;;;;;8.23;4.60;;;26.50;79.30;;;;;;5062197;28;20036;-78
2021/06/20 12:07:43;;;;;;;9.60;6.20;;;26.60;78.60;;;;;;5064102;28;20071;-72
2021/06/20 12:10:12;;;;;;;11.25;5.53;;;26.60;82.20;;;;;;5060468;28;20032;-71
2021/06/20 12:12:40;;;;;;;8.65;5.30;;;26.60;77.10;;;;;;5067444;28;20111;-76
2021/06/20 12:15:06;;;;;;;11.27;5.22;;;26.70;88.70;;;;;;5063017;28;20142;-77
2021/06/20 12:17:32;;;;;;;8.45;5.05;;;26.90;88.90;;;;;;5064099;28;20041;-76
2021/06/20 12:19:58;;;;;;;8.18;5.20;;;27.00;91.00;;;;;;5063460;28;20052;-76
2021/06/20 12:22:23;;;;;;;7.88;5.05;;;27.10;90.40;;;;;;5061383;28;20040;-76
2021/06/20 12:25:02;;;;;;;7.72;4.80;;;27.10;89.90;;;;;;5063185;28;20818;-76
2021/06/20 12:27:29;;;;;;;7.95;4.38;;;27.30;91.70;;;;;;5060832;28;20021;-77
2021/06/20 12:29:54;;;;;;;9.32;5.80;;;27.20;84.20;;;;;;5062218;28;20063;-76
2021/06/20 12:32:22;;;;;;;7.32;4.40;;;27.30;91.40;;;;;;5049824;28;20056;-76
2021/06/20 12:34:52;;;;;;;5.90;4.00;;;27.20;82.50;;;;;;5061554;28;20082;-77
2021/06/20 12:37:21;;;;;;;7.03;4.00;;;27.20;83.10;;;;;;5045127;28;20044;-76
2021/06/20 12:39:53;;;;;;;6.82;4.15;;;27.30;84.40;;;;;;5061844;28;20563;-76
2021/06/20 12:42:20;;;;;;;11.40;4.50;;;27.50;87.20;;;;;;5063133;28;20032;-76
2021/06/20 12:44:55;;;;;;;8.93;4.20;;;27.60;76.50;;;;;;5057803;28;20021;-76